Time;durP1;ratioP1;P1;durP2;ratioP2;P2;SDS_P1;SDS_P2;PMS_P1;PMS_P2;Temp;Humidity;BMP_temperature;BMP_pressure;BME280_temperature;BME280_humidity;BME280_pressure;Samples;Min_cycle;Max_cycle;Signal;HPM_P1;HPM_P2
2021/07/02 00:00:00;;;;;;;5.03;3.70;;;;;;;;;;5114648;28;20195;-83
2021/07/02 00:02:27;;;;;;;5.03;4.53;;;;;;;;;;5114557;28;20191;-83
2021/07/02 00:04:55;;;;;;;4.65;4.25;;;;;;;;;;5113922;28;20606;-83
2021/07/02 00:07:22;;;;;;;4.97;4.25;;;;;;;;;;5110895;28;20192;-82
2021/07/02 00:09:51;;;;;;;3.95;3.60;;;;;;;;;;5094159;28;20173;-83
2021/07/02 00:12:18;;;;;;;3.05;2.75;;;;;;;;;;5093605;28;20720;-83
2021/07/02 00:14:47;;;;;;;5.18;4.30;;;;;;;;;;5093785;28;20207;-83
2021/07/02 00:17:14;;;;;;;5.10;4.60;;;;;;;;;;5093768;28;20180;-83
2021/07/02 00:19:42;;;;;;;3.88;3.45;;;;;;;;;;5093166;28;20195;-83
2021/07/02 00:22:09;;;;;;;2.63;2.42;;;;;;;;;;5012776;28;20232;-83
2021/07/02 00:24:37;;;;;;;2.40;2.20;;;;;;;;;;4990957;28;20207;-84
2021/07/02 00:27:06;;;;;;;2.80;2.60;;;;;;;;;;4991473;28;20192;-83
2021/07/02 00:29:33;;;;;;;3.72;2.92;;;;;;;;;;4991121;28;20188;-83
2021/07/02 00:32:01;;;;;;;2.22;2.03;;;;;;;;;;4996498;28;20226;-83
2021/07/02 00:34:28;;;;;;;3.50;3.20;;;;;;;;;;5010097;28;20202;-83
2021/07/02 00:36:55;;;;;;;3.00;2.70;;;;;;;;;;5010564;28;20710;-83
2021/07/02 00:39:23;;;;;;;2.88;2.63;;;;;;;;;;5010472;28;20254;-83
2021/07/02 00:41:50;;;;;;;4.85;3.85;;;;;;;;;;5010482;28;20225;-84
2021/07/02 00:44:38;;;;;;;3.13;2.45;;;;;;;;;;5010145;28;20202;-83
2021/07/02 00:47:06;;;;;;;6.68;6.00;;;;;;;;;;5010823;28;20183;-83
2021/07/02 00:49:34;;;;;;;6.95;5.80;;;;;;;;;;5010412;28;20252;-83
2021/07/02 00:52:03;;;;;;;7.18;5.53;;;;;;;;;;5010173;28;20223;-83
2021/07/02 00:54:30;;;;;;;6.00;5.35;;;;;;;;;;5010598;28;20557;-84
2021/07/02 00:56:58;;;;;;;7.85;5.15;;;;;;;;;;5010574;28;20188;-83
2021/07/02 00:59:27;;;;;;;8.52;6.95;;;;;;;;;;5011140;28;20205;-83
2021/07/02 01:01:54;;;;;;;6.15;4.97;;;;;;;;;;5010573;28;20225;-84
2021/07/02 01:04:23;;;;;;;9.60;7.18;;;;;;;;;;5010122;28;20826;-83
2021/07/02 01:06:51;;;;;;;6.78;5.60;;;;;;;;;;5010841;28;20278;-85
2021/07/02 01:09:19;;;;;;;3.85;3.55;;;;;;;;;;5010361;28;20642;-83
2021/07/02 01:11:47;;;;;;;11.13;5.43;;;;;;;;;;5010224;28;20606;-82
2021/07/02 01:14:14;;;;;;;5.15;4.63;;;;;;;;;;5001868;28;20204;-83
2021/07/02 01:16:43;;;;;;;4.43;4.03;;;;;;;;;;4990877;28;20195;-83
2021/07/02 01:19:10;;;;;;;4.65;3.90;;;;;;;;;;4991150;28;20195;-83
2021/07/02 01:21:39;;;;;;;4.50;4.07;;;;;;;;;;4990639;28;20241;-83
2021/07/02 01:24:07;;;;;;;5.38;4.88;;;;;;;;;;4990387;28;20223;-84
2021/07/02 01:26:34;;;;;;;4.13;3.72;;;;;;;;;;4990558;28;20191;-84
2021/07/02 01:29:03;;;;;;;3.05;2.80;;;;;;;;;;5007371;28;20732;-83
2021/07/02 01:31:30;;;;;;;5.13;3.42;;;;;;;;;;4993550;28;20231;-83
2021/07/02 01:33:58;;;;;;;2.85;2.65;;;;;;;;;;4999530;28;20195;-83
2021/07/02 01:36:27;;;;;;;4.25;3.85;;;;;;;;;;5014123;28;20826;-83
2021/07/02 01:38:56;;;;;;;4.70;3.92;;;;;;;;;;5013488;28;20198;-83
2021/07/02 01:41:23;;;;;;;4.60;3.72;;;;;;;;;;5013440;28;20223;-83
2021/07/02 01:43:51;;;;;;;5.97;5.07;;;;;;;;;;5013448;28;20211;-83
2021/07/02 01:46:18;;;;;;;3.50;3.20;;;;;;;;;;5013464;28;20191;-83
2021/07/02 01:48:46;;;;;;;2.95;2.47;;;;;;;;;;5013230;28;20187;-83
2021/07/02 01:51:13;;;;;;;2.30;2.10;;;;;;;;;;5013844;28;20701;-83
2021/07/02 01:53:41;;;;;;;3.28;3.00;;;;;;;;;;5012932;28;20244;-83
2021/07/02 01:56:10;;;;;;;5.18;4.18;;;;;;;;;;5012588;28;20188;-83
2021/07/02 01:58:37;;;;;;;3.05;2.72;;;;;;;;;;5013229;28;20187;-84
2021/07/02 02:01:05;;;;;;;3.97;2.95;;;;;;;;;;5013036;28;20223;-83
2021/07/02 02:03:32;;;;;;;5.03;4.55;;;;;;;;;;5012601;28;20209;-83
2021/07/02 02:06:00;;;;;;;4.13;3.80;;;;;;;;;;5012413;28;20203;-83
2021/07/02 02:08:27;;;;;;;4.97;4.10;;;;;;;;;;5012671;28;20691;-83
2021/07/02 02:10:55;;;;;;;3.47;3.17;;;;;;;;;;5012996;28;20598;-83
2021/07/02 02:13:23;;;;;;;4.05;3.65;;;;;;;;;;5012356;28;20211;-83
2021/07/02 02:15:51;;;;;;;4.25;3.85;;;;;;;;;;5012675;28;20190;-83
2021/07/02 02:18:19;;;;;;;4.47;3.97;;;;;;;;;;5012502;28;20192;-83
2021/07/02 02:20:47;;;;;;;5.03;4.45;;;;;;;;;;5033314;28;20232;-83
2021/07/02 02:23:15;;;;;;;3.83;3.50;;;;;;;;;;5116741;28;20295;-83
2021/07/02 02:25:43;;;;;;;3.55;3.25;;;;;;;;;;5115985;28;20180;-83
2021/07/02 02:28:10;;;;;;;4.45;2.95;;;;;;;;;;5115703;28;20203;-82
2021/07/02 02:30:39;;;;;;;4.70;3.33;;;;;;;;;;5116099;28;20227;-83
2021/07/02 02:33:08;;;;;;;3.40;3.10;;;;;;;;;;5115689;28;20204;-83
2021/07/02 02:35:36;;;;;;;2.47;2.28;;;;;;;;;;5116056;28;20204;-82
2021/07/02 02:38:04;;;;;;;2.35;2.15;;;;;;;;;;5115520;28;20199;-83
2021/07/02 02:40:31;;;;;;;2.47;2.28;;;;;;;;;;5115477;28;20709;-83
2021/07/02 02:42:58;;;;;;;3.25;2.97;;;;;;;;;;5116003;28;20561;-83
2021/07/02 02:45:26;;;;;;;2.78;2.55;;;;;;;;;;5114219;28;20210;-83
2021/07/02 02:47:55;;;;;;;2.75;2.55;;;;;;;;;;5116261;28;20184;-83
2021/07/02 02:50:22;;;;;;;3.63;2.65;;;;;;;;;;5115155;28;20940;-83
2021/07/02 02:52:50;;;;;;;2.50;2.30;;;;;;;;;;5114593;28;20206;-83
2021/07/02 02:55:17;;;;;;;2.70;2.50;;;;;;;;;;5114874;28;20638;-83
2021/07/02 02:57:44;;;;;;;2.70;2.50;;;;;;;;;;5115706;28;20184;-83
2021/07/02 03:00:14;;;;;;;3.78;3.10;;;;;;;;;;5115094;28;20199;-83
2021/07/02 03:02:41;;;;;;;4.43;4.03;;;;;;;;;;5116015;28;20180;-84
2021/07/02 03:05:11;;;;;;;4.50;4.07;;;;;;;;;;5115826;28;20184;-84
2021/07/02 03:07:41;;;;;;;3.13;2.92;;;;;;;;;;5116181;28;20558;-83
2021/07/02 03:10:10;;;;;;;3.55;3.08;;;;;;;;;;5114956;28;20595;-83
2021/07/02 03:12:38;;;;;;;2.85;2.65;;;;;;;;;;5114719;28;20223;-83
2021/07/02 03:15:06;;;;;;;3.40;3.15;;;;;;;;;;5115020;28;20559;-83
2021/07/02 03:17:34;;;;;;;3.30;3.00;;;;;;;;;;5114773;28;20215;-83
2021/07/02 03:20:01;;;;;;;4.30;3.83;;;;;;;;;;5114667;28;20199;-83
2021/07/02 03:22:30;;;;;;;7.57;4.55;;;;;;;;;;5114812;28;20219;-83
2021/07/02 03:24:57;;;;;;;5.50;4.45;;;;;;;;;;5114902;28;20199;-82
2021/07/02 03:27:25;;;;;;;4.57;4.10;;;;;;;;;;5114936;28;20184;-82
2021/07/02 03:29:52;;;;;;;3.58;3.08;;;;;;;;;;5115156;28;20591;-82
2021/07/02 03:32:19;;;;;;;4.20;2.85;;;;;;;;;;5114487;28;20226;-82
2021/07/02 03:34:48;;;;;;;2.50;2.30;;;;;;;;;;5114697;28;20211;-82
2021/07/02 03:37:16;;;;;;;2.35;2.00;;;;;;;;;;5114842;28;20215;-83
2021/07/02 03:39:45;;;;;;;2.85;2.65;;;;;;;;;;5114463;28;20195;-82
2021/07/02 03:42:13;;;;;;;4.68;3.92;;;;;;;;;;5114780;28;20227;-82
2021/07/02 03:44:40;;;;;;;4.80;4.40;;;;;;;;;;5114122;28;20195;-82
2021/07/02 03:47:08;;;;;;;8.85;4.03;;;;;;;;;;5114918;28;20752;-82
2021/07/02 03:49:35;;;;;;;6.28;5.70;;;;;;;;;;5114552;28;20176;-82
2021/07/02 03:52:03;;;;;;;5.47;3.85;;;;;;;;;;5114326;28;20230;-82
2021/07/02 03:54:31;;;;;;;3.75;3.22;;;;;;;;;;5114276;28;20206;-83
2021/07/02 03:57:12;;;;;;;4.45;4.03;;;;;;;;;;5114158;28;20210;-83
2021/07/02 03:59:41;;;;;;;4.97;4.47;;;;;;;;;;5114202;28;20709;-83
2021/07/02 04:02:08;;;;;;;3.13;2.92;;;;;;;;;;5114427;28;20234;-82
2021/07/02 04:04:36;;;;;;;4.53;3.58;;;;;;;;;;5113861;28;20179;-82
2021/07/02 04:07:05;;;;;;;3.63;3.33;;;;;;;;;;5113910;28;20187;-82
2021/07/02 04:09:33;;;;;;;4.80;4.40;;;;;;;;;;5113943;28;20263;-82
2021/07/02 04:12:04;;;;;;;4.30;3.88;;;;;;;;;;5114105;28;20216;-83
2021/07/02 04:14:32;;;;;;;3.80;3.50;;;;;;;;;;5113662;28;20199;-82
2021/07/02 04:17:00;;;;;;;3.42;3.13;;;;;;;;;;5114136;28;20194;-82
2021/07/02 04:19:27;;;;;;;4.22;3.80;;;;;;;;;;5113967;28;20207;-82
2021/07/02 04:21:55;;;;;;;3.40;3.10;;;;;;;;;;5113037;28;20224;-82
2021/07/02 04:24:22;;;;;;;5.00;4.50;;;;;;;;;;5113697;28;20199;-82
2021/07/02 04:26:50;;;;;;;6.60;5.07;;;;;;;;;;5114026;28;20218;-82
2021/07/02 04:29:19;;;;;;;5.43;4.90;;;;;;;;;;5113513;28;20195;-82
2021/07/02 04:31:46;;;;;;;4.72;4.32;;;;;;;;;;5113603;28;20226;-82
2021/07/02 04:34:14;;;;;;;4.55;4.10;;;;;;;;;;5113735;28;20210;-82
2021/07/02 04:36:41;;;;;;;3.75;3.45;;;;;;;;;;5113442;28;20199;-82
2021/07/02 04:39:09;;;;;;;4.50;4.10;;;;;;;;;;5114048;28;20200;-82
2021/07/02 04:41:36;;;;;;;5.05;3.85;;;;;;;;;;5113590;28;20298;-82
2021/07/02 04:44:04;;;;;;;4.88;4.00;;;;;;;;;;5113814;28;20195;-82
2021/07/02 04:46:33;;;;;;;7.78;5.57;;;;;;;;;;5113967;28;20200;-83
2021/07/02 04:49:00;;;;;;;5.78;5.15;;;;;;;;;;5113958;28;20187;-82
2021/07/02 04:51:28;;;;;;;6.80;5.90;;;;;;;;;;5113582;28;20226;-82
2021/07/02 04:53:55;;;;;;;5.82;4.93;;;;;;;;;;5113658;28;20211;-82
2021/07/02 04:56:24;;;;;;;6.18;5.03;;;;;;;;;;5113121;28;20188;-82
2021/07/02 04:58:54;;;;;;;6.32;5.10;;;;;;;;;;5113041;28;20563;-82
2021/07/02 05:01:22;;;;;;;4.88;4.18;;;;;;;;;;5113000;28;20259;-82
2021/07/02 05:03:52;;;;;;;5.75;4.78;;;;;;;;;;5113128;28;20187;-82
2021/07/02 05:06:19;;;;;;;2.92;2.70;;;;;;;;;;5113428;28;20188;-82
2021/07/02 05:08:47;;;;;;;5.10;4.57;;;;;;;;;;5115902;28;20207;-82
2021/07/02 05:11:14;;;;;;;5.32;4.80;;;;;;;;;;5117232;28;20215;-82
2021/07/02 05:13:43;;;;;;;5.82;4.55;;;;;;;;;;5116977;28;20188;-82
2021/07/02 05:16:11;;;;;;;5.82;5.00;;;;;;;;;;5116853;28;20653;-83
2021/07/02 05:18:39;;;;;;;4.85;4.30;;;;;;;;;;5116745;28;20282;-82
2021/07/02 05:21:08;;;;;;;5.30;4.80;;;;;;;;;;5116505;28;20216;-82
2021/07/02 05:23:35;;;;;;;3.90;3.50;;;;;;;;;;5116711;28;20198;-83
2021/07/02 05:26:03;;;;;;;4.85;4.25;;;;;;;;;;5116607;28;20632;-82
2021/07/02 05:28:33;;;;;;;7.25;5.32;;;;;;;;;;5116692;28;20188;-82
2021/07/02 05:31:00;;;;;;;4.03;3.30;;;;;;;;;;5116587;28;20230;-82
2021/07/02 05:33:28;;;;;;;4.60;4.05;;;;;;;;;;5116969;28;20228;-82
2021/07/02 05:35:55;;;;;;;8.40;5.15;;;;;;;;;;5117215;28;20204;-83
2021/07/02 05:38:24;;;;;;;4.97;4.47;;;;;;;;;;5116726;28;20633;-82
2021/07/02 05:40:55;;;;;;;4.95;4.25;;;;;;;;;;5116996;28;20208;-82
2021/07/02 05:43:22;;;;;;;6.03;5.07;;;;;;;;;;5117363;28;20191;-82
2021/07/02 05:45:52;;;;;;;4.80;4.03;;;;;;;;;;5118354;27;20195;-83
2021/07/02 05:48:21;;;;;;;7.00;5.85;;;;;;;;;;5137733;27;20214;-83
2021/07/02 05:50:49;;;;;;;6.80;5.22;;;;;;;;;;5137303;27;20223;-83
2021/07/02 05:53:18;;;;;;;6.13;4.50;;;;;;;;;;5138353;27;20187;-82
2021/07/02 05:55:46;;;;;;;5.15;4.53;;;;;;;;;;5133184;27;20282;-82
2021/07/02 05:58:14;;;;;;;6.72;6.10;;;;;;;;;;5117631;28;20191;-82
2021/07/02 06:00:41;;;;;;;5.10;4.60;;;;;;;;;;5118472;28;20219;-83
2021/07/02 06:03:09;;;;;;;5.97;5.03;;;;;;;;;;5117083;28;20211;-84
2021/07/02 06:05:37;;;;;;;4.93;4.43;;;;;;;;;;5116499;28;20187;-82
2021/07/02 06:08:05;;;;;;;5.68;4.88;;;;;;;;;;5117049;28;20187;-82
2021/07/02 06:10:33;;;;;;;5.28;4.78;;;;;;;;;;5117096;28;20215;-83
2021/07/02 06:13:02;;;;;;;5.85;5.25;;;;;;;;;;5117208;28;20180;-82
2021/07/02 06:15:29;;;;;;;5.50;4.72;;;;;;;;;;5116758;28;20223;-83
2021/07/02 06:18:07;;;;;;;5.65;4.65;;;;;;;;;;5116731;28;20176;-82
2021/07/02 06:20:35;;;;;;;4.72;4.22;;;;;;;;;;5115453;28;20211;-83
2021/07/02 06:23:03;;;;;;;5.13;4.63;;;;;;;;;;5117180;28;20510;-82
2021/07/02 06:25:30;;;;;;;3.40;3.10;;;;;;;;;;5116985;28;20184;-83
2021/07/02 06:27:58;;;;;;;5.43;3.70;;;;;;;;;;5116556;28;20203;-82
2021/07/02 06:30:27;;;;;;;4.35;3.95;;;;;;;;;;5115939;28;20211;-83
2021/07/02 06:32:55;;;;;;;5.18;4.43;;;;;;;;;;5117179;28;20593;-83
2021/07/02 06:35:23;;;;;;;3.88;2.88;;;;;;;;;;5116967;28;20220;-84
2021/07/02 06:37:50;;;;;;;2.60;2.40;;;;;;;;;;5118532;28;20210;-84
2021/07/02 06:40:19;;;;;;;4.00;3.60;;;;;;;;;;5118305;28;20180;-84
2021/07/02 06:42:49;;;;;;;3.05;2.85;;;;;;;;;;5118014;28;20565;-83
2021/07/02 06:45:17;;;;;;;2.42;2.22;;;;;;;;;;5118162;28;20658;-84
2021/07/02 06:47:58;;;;;;;2.40;2.20;;;;;;;;;;5098835;28;20192;-84
2021/07/02 06:50:27;;;;;;;2.28;2.08;;;;;;;;;;5097506;28;20289;-83
2021/07/02 06:52:55;;;;;;;2.10;2.00;;;;;;;;;;5097943;28;20194;-84
2021/07/02 06:55:23;;;;;;;1.30;1.20;;;;;;;;;;5098909;28;20220;-84
2021/07/02 06:57:55;;;;;;;1.80;1.70;;;;;;;;;;5118360;28;20190;-84
2021/07/02 07:00:23;;;;;;;1.85;1.75;;;;;;;;;;5117679;28;20219;-84
2021/07/02 07:02:51;;;;;;;2.42;2.22;;;;;;;;;;5117671;28;20184;-83
2021/07/02 07:05:20;;;;;;;2.38;2.17;;;;;;;;;;5117037;28;20592;-82
2021/07/02 07:07:48;;;;;;;2.08;1.98;;;;;;;;;;5117388;28;20190;-83
2021/07/02 07:10:16;;;;;;;2.88;2.60;;;;;;;;;;5116855;28;20199;-83
2021/07/02 07:12:43;;;;;;;3.58;3.22;;;;;;;;;;5117972;28;20626;-83
2021/07/02 07:15:12;;;;;;;2.58;2.38;;;;;;;;;;5117029;28;20211;-83
2021/07/02 07:17:40;;;;;;;3.03;2.72;;;;;;;;;;5117037;28;20663;-83
2021/07/02 07:20:08;;;;;;;2.45;2.25;;;;;;;;;;5117270;28;20198;-84
2021/07/02 07:22:37;;;;;;;3.65;3.35;;;;;;;;;;5117657;28;20587;-84
2021/07/02 07:25:06;;;;;;;2.63;2.42;;;;;;;;;;5117339;28;20200;-84
2021/07/02 07:27:34;;;;;;;2.55;2.35;;;;;;;;;;5116897;28;20658;-84
2021/07/02 07:30:02;;;;;;;1.90;1.80;;;;;;;;;;5117086;28;20188;-84
2021/07/02 07:32:29;;;;;;;2.17;2.00;;;;;;;;;;5117588;28;20214;-84
2021/07/02 07:34:59;;;;;;;2.63;2.42;;;;;;;;;;5117258;28;20223;-83
2021/07/02 07:37:30;;;;;;;2.20;2.05;;;;;;;;;;5117486;28;20192;-84
2021/07/02 07:39:59;;;;;;;2.42;2.30;;;;;;;;;;5117138;28;20184;-85
2021/07/02 07:42:27;;;;;;;2.47;2.28;;;;;;;;;;5117379;28;20223;-84
2021/07/02 07:44:54;;;;;;;2.60;2.40;;;;;;;;;;5117643;28;20204;-84
2021/07/02 07:47:21;;;;;;;3.28;2.97;;;;;;;;;;5098245;28;20204;-84
2021/07/02 07:49:49;;;;;;;4.88;4.30;;;;;;;;;;5096097;28;20193;-84
2021/07/02 07:52:19;;;;;;;4.75;4.25;;;;;;;;;;5096926;28;20253;-84
2021/07/02 07:54:46;;;;;;;4.30;3.90;;;;;;;;;;5096573;28;20200;-84
2021/07/02 07:57:16;;;;;;;11.60;6.32;;;;;;;;;;5096775;28;20221;-83
2021/07/02 07:59:43;;;;;;;6.68;5.30;;;;;;;;;;5096489;28;20206;-84
2021/07/02 08:02:11;;;;;;;7.85;6.32;;;;;;;;;;5096979;28;20235;-83
2021/07/02 08:04:38;;;;;;;7.03;5.70;;;;;;;;;;5096540;28;20196;-84
2021/07/02 08:07:06;;;;;;;6.47;5.88;;;;;;;;;;5117226;28;20184;-84
2021/07/02 08:09:33;;;;;;;6.93;6.20;;;;;;;;;;5121852;28;20199;-84
2021/07/02 08:12:01;;;;;;;5.80;4.90;;;;;;;;;;5121510;28;20222;-83
2021/07/02 08:14:29;;;;;;;10.20;7.55;;;;;;;;;;5122860;28;20188;-83
2021/07/02 08:16:57;;;;;;;9.07;8.10;;;;;;;;;;5121446;28;20681;-84
2021/07/02 08:19:24;;;;;;;6.70;6.05;;;;;;;;;;5120511;28;20180;-84
2021/07/02 08:21:52;;;;;;;5.93;5.32;;;;;;;;;;5114485;28;20235;-82
2021/07/02 08:24:19;;;;;;;6.55;5.95;;;;;;;;;;5116327;28;20190;-83
2021/07/02 08:26:48;;;;;;;7.13;6.43;;;;;;;;;;5112755;28;20183;-83
2021/07/02 08:29:26;;;;;;;7.45;6.63;;;;;;;;;;5094734;28;20177;-83
2021/07/02 08:31:55;;;;;;;7.55;6.75;;;;;;;;;;5093977;28;20215;-83
2021/07/02 08:34:26;;;;;;;9.57;8.30;;;;;;;;;;5093524;28;20181;-83
2021/07/02 08:36:53;;;;;;;13.32;9.82;;;;;;;;;;5098005;28;20762;-84
2021/07/02 08:39:23;;;;;;;11.13;9.57;;;;;;;;;;5093298;28;20200;-83
2021/07/02 08:41:50;;;;;;;12.18;10.50;;;;;;;;;;5093813;28;20345;-84
2021/07/02 08:44:18;;;;;;;10.82;9.73;;;;;;;;;;5098311;28;20176;-83
2021/07/02 08:46:47;;;;;;;12.50;9.38;;;;;;;;;;5114650;28;20200;-83
2021/07/02 08:49:16;;;;;;;10.50;8.20;;;;;;;;;;5119126;28;20184;-82
2021/07/02 08:51:44;;;;;;;10.02;8.07;;;;;;;;;;5118340;28;20208;-83
2021/07/02 08:54:14;;;;;;;11.93;9.30;;;;;;;;;;5118882;28;20555;-84
2021/07/02 08:56:55;;;;;;;11.60;10.38;;;;;;;;;;5118390;28;20302;-83
2021/07/02 08:59:24;;;;;;;12.98;10.02;;;;;;;;;;5118876;28;20196;-84
2021/07/02 09:01:51;;;;;;;16.38;10.70;;;;;;;;;;5118954;28;20227;-84
2021/07/02 09:04:23;;;;;;;13.40;11.32;;;;;;;;;;5118243;28;20190;-83
2021/07/02 09:07:09;;;;;;;17.00;11.80;;;;;;;;;;5110056;28;20606;-84
2021/07/02 09:09:52;;;;;;;17.02;10.98;;;;;;;;;;5114990;28;20185;-84
2021/07/02 09:12:21;;;;;;;16.90;11.45;;;;;;;;;;5098442;28;20219;-84
2021/07/02 09:15:09;;;;;;;14.95;10.77;;;;;;;;;;5097892;28;20191;-83
2021/07/02 09:17:39;;;;;;;13.25;9.00;;;;;;;;;;5117367;28;20257;-84
2021/07/02 09:20:12;;;;;;;12.07;9.27;;;;;;;;;;5116967;28;20658;-84
2021/07/02 09:22:48;;;;;;;15.38;10.07;;;;;;;;;;5110909;28;20232;-84
2021/07/02 09:25:29;;;;;;;16.00;10.00;;;;;;;;;;5096139;28;20185;-84
2021/07/02 09:27:59;;;;;;;15.68;11.65;;;;;;;;;;5116644;28;20184;-84
2021/07/02 09:30:31;;;;;;;16.45;9.45;;;;;;;;;;5117252;28;20224;-83
2021/07/02 09:33:03;;;;;;;15.27;9.43;;;;;;;;;;5108688;28;20245;-84
2021/07/02 09:35:36;;;;;;;14.95;9.02;;;;;;;;;;5100755;28;20187;-84
2021/07/02 09:38:05;;;;;;;11.25;8.05;;;;;;;;;;5108271;28;20235;-83
2021/07/02 09:40:36;;;;;;;13.98;10.02;;;;;;;;;;5115765;28;20227;-84
2021/07/02 09:43:08;;;;;;;12.15;9.05;;;;;;;;;;5096264;28;20196;-84
2021/07/02 09:45:44;;;;;;;16.05;11.57;;;;;;;;;;5105768;28;20226;-84
2021/07/02 09:48:13;;;;;;;12.82;9.30;;;;;;;;;;5097296;28;20637;-84
2021/07/02 09:50:46;;;;;;;15.18;10.48;;;;;;;;;;5109134;28;20212;-85
2021/07/02 09:53:16;;;;;;;18.90;10.48;;;;;;;;;;5116599;28;20202;-85
2021/07/02 09:55:46;;;;;;;14.93;10.15;;;;;;;;;;5117351;28;20180;-85
2021/07/02 09:58:15;;;;;;;13.43;9.60;;;;;;;;;;5116916;28;20212;-85
2021/07/02 10:00:47;;;;;;;12.20;9.82;;;;;;;;;;5117301;28;20230;-85
2021/07/02 10:03:16;;;;;;;12.35;9.07;;;;;;;;;;5117048;28;20203;-85
2021/07/02 10:05:54;;;;;;;13.38;10.23;;;;;;;;;;5113181;28;20184;-85
2021/07/02 10:08:24;;;;;;;11.23;9.65;;;;;;;;;;5097698;28;20300;-84
2021/07/02 10:10:52;;;;;;;11.38;8.77;;;;;;;;;;5097356;28;20212;-85
2021/07/02 10:13:22;;;;;;;10.35;8.73;;;;;;;;;;5097186;28;20200;-85
2021/07/02 10:15:51;;;;;;;8.23;6.60;;;;;;;;;;5102672;28;20219;-85
2021/07/02 10:18:19;;;;;;;8.30;6.65;;;;;;;;;;5117042;28;20219;-85
2021/07/02 10:20:49;;;;;;;11.07;7.57;;;;;;;;;;5080083;28;1087295;-85
2021/07/02 10:23:25;;;;;;;12.88;10.68;;;;;;;;;;5118976;28;20221;-85
2021/07/02 10:25:54;;;;;;;11.77;8.30;;;;;;;;;;5118285;28;20198;-85
2021/07/02 10:28:23;;;;;;;11.35;8.55;;;;;;;;;;5116544;28;20761;-85
2021/07/02 10:30:51;;;;;;;11.88;9.25;;;;;;;;;;5116945;28;20226;-84
2021/07/02 10:33:20;;;;;;;11.88;8.77;;;;;;;;;;5116923;28;20211;-84
2021/07/02 10:35:54;;;;;;;12.45;8.77;;;;;;;;;;5117480;28;20210;-85
2021/07/02 10:38:21;;;;;;;9.73;8.45;;;;;;;;;;5116437;28;20227;-85
2021/07/02 10:40:50;;;;;;;9.63;7.82;;;;;;;;;;5116132;28;20223;-84
2021/07/02 10:43:21;;;;;;;9.95;8.00;;;;;;;;;;5117583;28;20574;-85
2021/07/02 10:46:13;;;;;;;9.32;7.25;;;;;;;;;;5115812;28;20188;-84
2021/07/02 10:48:59;;;;;;;12.35;8.13;;;;;;;;;;5116545;28;20560;-85
2021/07/02 10:51:46;;;;;;;9.65;7.40;;;;;;;;;;5115583;28;20215;-85
2021/07/02 10:54:35;;;;;;;9.65;7.60;;;;;;;;;;5114869;28;20585;-84
2021/07/02 10:57:20;;;;;;;11.57;7.63;;;;;;;;;;5114329;28;20676;-85
2021/07/02 11:00:11;;;;;;;10.05;7.75;;;;;;;;;;5115376;28;20203;-84
2021/07/02 11:02:39;;;;;;;10.90;8.55;;;;;;;;;;5118200;28;20191;-87
2021/07/02 11:05:29;;;;;;;10.65;8.30;;;;;;;;;;5115725;28;20708;-84
2021/07/02 11:07:59;;;;;;;10.77;9.07;;;;;;;;;;5094272;28;20287;-84
2021/07/02 11:10:26;;;;;;;10.27;7.72;;;;;;;;;;5094529;28;20223;-85
2021/07/02 11:13:05;;;;;;;13.40;8.45;;;;;;;;;;5094134;28;20577;-87
2021/07/02 11:15:33;;;;;;;11.32;8.15;;;;;;;;;;5096653;28;20204;-85
2021/07/02 11:18:19;;;;;;;8.70;7.13;;;;;;;;;;5114583;28;20219;-85
2021/07/02 11:20:47;;;;;;;6.78;5.72;;;;;;;;;;5114564;28;20235;-85
2021/07/02 11:23:24;;;;;;;5.97;5.03;;;;;;;;;;5115150;28;20203;-84
2021/07/02 11:25:56;;;;;;;6.35;5.65;;;;;;;;;;5114081;28;20191;-87
2021/07/02 11:28:45;;;;;;;5.38;4.82;;;;;;;;;;5114357;28;20191;-84
2021/07/02 11:31:13;;;;;;;5.30;4.80;;;;;;;;;;5113912;28;20272;-85
2021/07/02 11:33:41;;;;;;;6.72;5.28;;;;;;;;;;5113564;28;20669;-84
2021/07/02 11:36:17;;;;;;;5.72;5.20;;;;;;;;;;5112960;28;20657;-87
2021/07/02 11:38:55;;;;;;;6.90;4.82;;;;;;;;;;5113357;28;20218;-85
2021/07/02 11:41:31;;;;;;;4.22;3.83;;;;;;;;;;5113689;28;20318;-85
2021/07/02 11:44:02;;;;;;;4.30;3.90;;;;;;;;;;5112792;28;20286;-84
2021/07/02 11:46:30;;;;;;;5.03;4.07;;;;;;;;;;5113158;28;20246;-85
2021/07/02 11:48:58;;;;;;;5.22;4.20;;;;;;;;;;5114000;28;20191;-85
2021/07/02 11:51:28;;;;;;;6.25;5.15;;;;;;;;;;5113147;28;20280;-85
2021/07/02 11:53:59;;;;;;;4.15;3.40;;;;;;;;;;5113598;28;20555;-85
2021/07/02 11:56:29;;;;;;;4.07;3.70;;;;;;;;;;5113591;28;20200;-84
2021/07/02 11:58:59;;;;;;;3.50;3.20;;;;;;;;;;5113332;28;20225;-84
2021/07/02 12:01:37;;;;;;;2.78;2.58;;;;;;;;;;5113069;28;20693;-85
2021/07/02 12:04:07;;;;;;;5.13;3.75;;;;;;;;;;5112720;28;20200;-84
2021/07/02 12:06:41;;;;;;;4.25;3.72;;;;;;;;;;5112777;28;20650;-85
2021/07/02 12:09:13;;;;;;;3.13;2.92;;;;;;;;;;5113095;28;20203;-85
2021/07/02 12:11:45;;;;;;;2.97;2.75;;;;;;;;;;5112997;28;20227;-84
2021/07/02 12:14:15;;;;;;;2.80;2.60;;;;;;;;;;5113002;28;20642;-85
2021/07/02 12:16:45;;;;;;;4.15;3.75;;;;;;;;;;5112500;28;20281;-84
2021/07/02 12:19:16;;;;;;;5.65;4.35;;;;;;;;;;5112757;28;20250;-85
2021/07/02 12:21:52;;;;;;;9.55;5.47;;;;;;;;;;5112470;28;20235;-84
2021/07/02 12:24:23;;;;;;;6.20;3.95;;;;;;;;;;5113019;28;20207;-85
2021/07/02 12:26:55;;;;;;;5.55;4.75;;;;;;;;;;5112500;28;20196;-85
2021/07/02 12:29:23;;;;;;;5.72;4.88;;;;;;;;;;5112880;28;20203;-84
2021/07/02 12:31:52;;;;;;;5.97;5.38;;;;;;;;;;5112731;28;20211;-85
2021/07/02 12:34:22;;;;;;;8.55;6.35;;;;;;;;;;5113173;28;20203;-85
2021/07/02 12:36:57;;;;;;;7.15;5.10;;;;;;;;;;5097730;28;20206;-84
2021/07/02 12:39:30;;;;;;;7.90;5.47;;;;;;;;;;5091965;28;20605;-85
2021/07/02 12:42:00;;;;;;;6.20;5.32;;;;;;;;;;5092525;28;20220;-86
2021/07/02 12:44:30;;;;;;;7.93;5.68;;;;;;;;;;5092572;28;20246;-86
2021/07/02 12:46:57;;;;;;;5.70;5.15;;;;;;;;;;5106555;28;20195;-85
2021/07/02 12:49:32;;;;;;;6.10;5.03;;;;;;;;;;5112690;28;20291;-84
2021/07/02 12:54:56;;;;;;;6.80;5.78;;;;;;;;;;5112817;28;20214;-85
2021/07/02 12:57:30;;;;;;;5.10;4.53;;;;;;;;;;5112271;28;20252;-84
2021/07/02 12:59:59;;;;;;;3.97;3.67;;;;;;;;;;5112669;28;20223;-86
2021/07/02 13:02:34;;;;;;;3.92;3.60;;;;;;;;;;5112228;28;20238;-86
2021/07/02 13:05:05;;;;;;;4.32;3.92;;;;;;;;;;5113849;28;20595;-85
2021/07/02 13:07:55;;;;;;;4.72;4.32;;;;;;;;;;5112444;28;20203;-84
2021/07/02 13:10:32;;;;;;;7.32;6.00;;;;;;;;;;5112729;28;20192;-86
2021/07/02 13:13:12;;;;;;;6.93;6.20;;;;;;;;;;5112738;28;20546;-86
2021/07/02 13:16:01;;;;;;;8.07;6.50;;;;;;;;;;5112595;28;20605;-87
2021/07/02 13:18:29;;;;;;;7.57;6.38;;;;;;;;;;5112477;28;20754;-86
2021/07/02 13:20:59;;;;;;;7.38;6.28;;;;;;;;;;5112151;28;20739;-86
2021/07/02 13:23:28;;;;;;;9.50;7.32;;;;;;;;;;5112246;28;20673;-86
2021/07/02 13:26:07;;;;;;;8.73;7.72;;;;;;;;;;5112223;28;20206;-86
2021/07/02 13:28:39;;;;;;;10.15;7.82;;;;;;;;;;5113244;28;20203;-87
2021/07/02 13:31:27;;;;;;;9.38;7.88;;;;;;;;;;5115971;28;20216;-86
2021/07/02 13:34:17;;;;;;;11.90;8.10;;;;;;;;;;5115958;28;20199;-86
2021/07/02 13:36:48;;;;;;;8.63;7.65;;;;;;;;;;5110297;28;20218;-86
2021/07/02 13:39:18;;;;;;;8.10;6.72;;;;;;;;;;5115809;28;20222;-87
2021/07/02 13:41:59;;;;;;;9.23;7.25;;;;;;;;;;5115654;28;20682;-87
2021/07/02 13:44:27;;;;;;;7.05;6.38;;;;;;;;;;5115825;28;20207;-87
2021/07/02 13:47:00;;;;;;;7.32;6.60;;;;;;;;;;5115661;28;20203;-87
2021/07/02 13:49:27;;;;;;;6.20;5.55;;;;;;;;;;5115871;28;20287;-86
2021/07/02 13:51:55;;;;;;;5.70;5.20;;;;;;;;;;5115999;28;20219;-86
2021/07/02 13:54:29;;;;;;;5.28;4.78;;;;;;;;;;5115920;28;20199;-86
2021/07/02 13:56:58;;;;;;;5.60;4.97;;;;;;;;;;5116247;28;20207;-86
2021/07/02 13:59:25;;;;;;;4.85;4.45;;;;;;;;;;5115513;28;20647;-87
2021/07/02 14:01:53;;;;;;;5.63;5.13;;;;;;;;;;5115193;28;20231;-87
2021/07/02 14:04:21;;;;;;;6.65;5.95;;;;;;;;;;5115219;28;20693;-87
2021/07/02 14:06:49;;;;;;;10.85;7.88;;;;;;;;;;5114973;28;20558;-87
2021/07/02 14:09:17;;;;;;;9.25;7.57;;;;;;;;;;5115471;28;20211;-88
2021/07/02 14:11:45;;;;;;;10.55;8.27;;;;;;;;;;5115110;28;20224;-87
2021/07/02 14:14:16;;;;;;;9.80;8.80;;;;;;;;;;5115243;28;20229;-87
2021/07/02 14:16:43;;;;;;;7.68;6.97;;;;;;;;;;5102312;28;20393;-86
2021/07/02 14:19:11;;;;;;;8.80;7.68;;;;;;;;;;5094981;28;20224;-87
2021/07/02 14:21:41;;;;;;;8.00;6.97;;;;;;;;;;5093617;28;20622;-88
2021/07/02 14:24:10;;;;;;;7.28;6.25;;;;;;;;;;5094627;28;20204;-86
2021/07/02 14:26:38;;;;;;;6.38;5.88;;;;;;;;;;5106564;28;20227;-86
2021/07/02 14:29:06;;;;;;;7.93;6.43;;;;;;;;;;5114875;28;20572;-88
2021/07/02 14:31:36;;;;;;;6.45;5.10;;;;;;;;;;5108984;28;20227;-86
2021/07/02 14:34:04;;;;;;;7.72;6.35;;;;;;;;;;5094999;28;20200;-85
2021/07/02 14:36:32;;;;;;;6.15;5.55;;;;;;;;;;5105016;28;20207;-86
2021/07/02 14:38:59;;;;;;;5.28;4.78;;;;;;;;;;5114271;28;20204;-86
2021/07/02 14:41:27;;;;;;;4.07;3.78;;;;;;;;;;5113895;28;20216;-85
2021/07/02 14:43:54;;;;;;;4.88;4.47;;;;;;;;;;5099153;28;20643;-84
2021/07/02 14:46:22;;;;;;;8.05;7.25;;;;;;;;;;5105248;28;20206;-83
2021/07/02 14:48:51;;;;;;;8.73;7.93;;;;;;;;;;5115968;28;20180;-85
2021/07/02 14:51:20;;;;;;;7.85;7.10;;;;;;;;;;5115617;28;20311;-85
2021/07/02 14:53:49;;;;;;;9.40;8.40;;;;;;;;;;5115772;28;20263;-85
2021/07/02 14:56:16;;;;;;;8.27;7.47;;;;;;;;;;5114628;28;20188;-83
2021/07/02 14:58:44;;;;;;;7.28;6.60;;;;;;;;;;5114324;28;20206;-83